createdAt,value
2023-04-15T00:02:26.351Z,1.65
2023-04-15T00:05:12.538Z,1.76
2023-04-15T00:07:58.521Z,1.73
2023-04-15T00:10:44.421Z,1.68
2023-04-15T00:13:30.321Z,1.70
2023-04-15T00:16:16.346Z,1.65
2023-04-15T00:19:02.566Z,1.55
2023-04-15T00:21:48.729Z,1.80
2023-04-15T00:24:34.744Z,1.76
2023-04-15T00:27:20.649Z,1.76
2023-04-15T00:30:06.707Z,1.56
2023-04-15T00:32:52.847Z,1.65
2023-04-15T00:35:38.806Z,1.44
2023-04-15T00:38:24.800Z,1.79
2023-04-15T00:41:10.772Z,2.09
2023-04-15T00:43:56.609Z,2.30
2023-04-15T00:46:42.662Z,3.13
2023-04-15T00:49:28.418Z,3.36
2023-04-15T00:52:14.312Z,3.77
2023-04-15T00:55:00.316Z,3.83
2023-04-15T00:57:46.126Z,3.73
2023-04-15T01:00:32.043Z,3.49
2023-04-15T01:03:18.265Z,3.63
2023-04-15T01:06:04.485Z,3.38
2023-04-15T01:08:50.535Z,3.68
2023-04-15T01:11:36.418Z,3.44
2023-04-15T01:14:22.439Z,3.38
2023-04-15T01:17:08.260Z,3.15
2023-04-15T01:19:54.101Z,2.94
2023-04-15T01:22:40.047Z,2.45
2023-04-15T01:25:25.901Z,2.13
2023-04-15T01:28:12.264Z,1.95
2023-04-15T01:30:58.188Z,2.17
2023-04-15T01:33:44.085Z,1.92
2023-04-15T01:36:30.007Z,1.78
2023-04-15T01:39:15.982Z,1.93
2023-04-15T01:42:01.832Z,1.79
2023-04-15T01:44:49.826Z,1.45
2023-04-15T01:47:35.668Z,1.39
2023-04-15T01:50:21.584Z,1.35
2023-04-15T01:53:07.507Z,1.37
2023-04-15T01:55:53.439Z,1.33
2023-04-15T01:58:40.486Z,1.15
2023-04-15T02:01:26.768Z,1.02
2023-04-15T02:04:12.922Z,1.04
2023-04-15T02:06:58.885Z,0.97
2023-04-15T02:09:44.820Z,1.04
2023-04-15T02:12:30.813Z,1.05
2023-04-15T02:15:16.697Z,1.12
2023-04-15T02:18:02.778Z,1.07
2023-04-15T02:20:48.784Z,1.18
2023-04-15T02:23:34.677Z,1.07
2023-04-15T02:26:20.544Z,1.20
2023-04-15T02:29:07.866Z,1.36
2023-04-15T02:31:53.816Z,1.54
2023-04-15T02:34:39.624Z,1.43
2023-04-15T02:37:25.617Z,1.45
2023-04-15T02:40:11.497Z,1.54
2023-04-15T02:42:57.220Z,1.53
2023-04-15T02:45:43.088Z,1.54
2023-04-15T02:48:28.900Z,1.58
2023-04-15T02:51:14.788Z,1.76
2023-04-15T02:54:00.677Z,1.77
2023-04-15T02:56:46.306Z,1.80
2023-04-15T02:59:32.195Z,2.05
2023-04-15T03:02:18.173Z,2.10
2023-04-15T03:05:04.394Z,2.05
2023-04-15T03:07:50.383Z,2.09
2023-04-15T03:10:36.311Z,1.93
2023-04-15T03:13:22.520Z,1.99
2023-04-15T03:16:08.587Z,2.28
2023-04-15T03:18:54.524Z,2.30
2023-04-15T03:21:40.464Z,2.10
2023-04-15T03:24:26.291Z,2.35
2023-04-15T03:27:12.097Z,2.22
2023-04-15T03:29:58.018Z,2.16
2023-04-15T03:32:43.922Z,2.99
2023-04-15T03:35:29.962Z,2.90
2023-04-15T03:38:15.896Z,2.29
2023-04-15T03:41:01.669Z,2.32
2023-04-15T03:43:47.665Z,2.37
2023-04-15T03:46:33.403Z,2.65
2023-04-15T03:49:19.250Z,2.32
2023-04-15T03:52:05.131Z,2.45
2023-04-15T03:54:50.933Z,2.45
2023-04-15T03:57:36.811Z,2.29
2023-04-15T04:00:22.763Z,2.26
2023-04-15T04:03:08.651Z,2.29
2023-04-15T04:05:55.262Z,2.34
2023-04-15T04:08:41.083Z,2.22
2023-04-15T04:11:27.114Z,2.19
2023-04-15T04:14:13.049Z,2.26
2023-04-15T04:16:58.848Z,2.39
2023-04-15T04:19:44.724Z,2.25
2023-04-15T04:22:30.585Z,2.45
2023-04-15T04:25:16.435Z,2.37
2023-04-15T04:28:02.397Z,2.47
2023-04-15T04:30:48.267Z,2.40
2023-04-15T04:33:34.083Z,2.67
2023-04-15T04:36:20.159Z,2.65
2023-04-15T04:39:06.008Z,2.74
2023-04-15T04:41:51.941Z,2.73
2023-04-15T04:44:37.830Z,2.82
2023-04-15T04:47:23.720Z,2.51
2023-04-15T04:50:09.599Z,2.46
2023-04-15T04:52:55.357Z,2.36
2023-04-15T04:55:41.356Z,2.19
2023-04-15T04:58:27.184Z,2.20
2023-04-15T05:01:13.077Z,2.00
2023-04-15T05:03:59.245Z,1.51
2023-04-15T05:06:45.443Z,1.29
2023-04-15T05:09:31.393Z,1.24
2023-04-15T05:12:17.274Z,1.09
2023-04-15T05:15:03.056Z,1.42
2023-04-15T05:17:49.018Z,1.28
2023-04-15T05:20:35.014Z,1.28
2023-04-15T05:23:20.876Z,1.21
2023-04-15T05:26:06.816Z,1.26
2023-04-15T05:28:52.642Z,1.34
2023-04-15T05:31:38.614Z,1.28
2023-04-15T05:34:24.538Z,1.37
2023-04-15T05:37:10.392Z,1.56
2023-04-15T05:39:56.357Z,1.79
2023-04-15T05:42:42.261Z,1.49
2023-04-15T05:45:28.133Z,1.83
2023-04-15T05:48:14.033Z,1.74
2023-04-15T05:50:59.796Z,1.70
2023-04-15T05:53:45.766Z,1.67
2023-04-15T05:56:31.720Z,1.79
2023-04-15T05:59:17.538Z,1.83
2023-04-15T06:02:03.495Z,1.62
2023-04-15T06:04:49.339Z,1.66
2023-04-15T06:07:35.339Z,1.46
2023-04-15T06:10:21.374Z,1.57
2023-04-15T06:13:07.270Z,1.37
2023-04-15T06:15:53.081Z,1.40
2023-04-15T06:18:39.110Z,1.28
2023-04-15T06:21:24.888Z,1.29
2023-04-15T06:24:12.678Z,1.58
2023-04-15T06:26:58.722Z,1.70
2023-04-15T06:29:44.565Z,1.97
2023-04-15T06:32:30.481Z,1.93
2023-04-15T06:35:16.233Z,2.39
2023-04-15T06:38:02.091Z,2.57
2023-04-15T06:40:47.989Z,4.12
2023-04-15T06:43:33.894Z,8.85
2023-04-15T06:46:20.021Z,3.39
2023-04-15T06:49:06.281Z,0.90
2023-04-15T06:51:52.233Z,0.79
2023-04-15T06:54:38.173Z,0.73
2023-04-15T06:57:23.843Z,0.38
2023-04-15T07:00:09.808Z,0.37
2023-04-15T07:02:55.825Z,0.37
2023-04-15T07:05:42.014Z,0.36
2023-04-15T07:08:27.913Z,0.37
2023-04-15T07:11:13.893Z,0.35
2023-04-15T07:13:59.790Z,0.29
2023-04-15T07:16:47.775Z,0.30
2023-04-15T07:19:33.635Z,0.21
2023-04-15T07:22:20.550Z,0.21
2023-04-15T07:25:07.009Z,0.24
2023-04-15T07:27:52.815Z,0.28
2023-04-15T07:30:38.683Z,0.32
2023-04-15T07:33:24.651Z,0.39
2023-04-15T07:36:10.575Z,0.26
2023-04-15T07:38:56.367Z,0.28
2023-04-15T07:41:42.204Z,0.38
2023-04-15T07:44:28.078Z,0.50
2023-04-15T07:47:13.916Z,0.63
2023-04-15T07:49:59.696Z,0.61
2023-04-15T07:52:45.519Z,0.63
2023-04-15T07:55:31.353Z,0.53
2023-04-15T07:58:17.137Z,0.37
2023-04-15T08:01:02.954Z,0.32
2023-04-15T08:03:48.900Z,0.32
2023-04-15T08:06:35.180Z,0.35
2023-04-15T08:09:23.228Z,0.41
2023-04-15T08:12:09.038Z,0.39
2023-04-15T08:14:55.010Z,0.30
2023-04-15T08:17:40.989Z,0.30
2023-04-15T08:20:26.927Z,0.38
2023-04-15T08:23:12.728Z,0.41
2023-04-15T08:25:58.425Z,0.37
2023-04-15T08:28:44.196Z,0.42
2023-04-15T08:31:30.266Z,0.42
2023-04-15T08:34:16.069Z,0.44
2023-04-15T08:37:01.876Z,0.39
2023-04-15T08:39:47.872Z,0.33
2023-04-15T08:42:33.620Z,0.48
2023-04-15T08:45:19.609Z,0.61
2023-04-15T08:48:05.477Z,0.73
2023-04-15T08:50:51.371Z,0.70
2023-04-15T08:53:37.197Z,0.82
2023-04-15T08:56:23.052Z,0.77
2023-04-15T08:59:08.797Z,0.61
2023-04-15T09:01:54.689Z,0.74
2023-04-15T09:04:40.529Z,0.79
2023-04-15T09:07:26.428Z,0.77
2023-04-15T09:10:12.107Z,0.79
2023-04-15T09:12:57.971Z,0.75
2023-04-15T09:15:43.856Z,0.72
2023-04-15T09:18:29.856Z,0.65
2023-04-15T09:21:15.914Z,0.76
2023-04-15T09:24:01.987Z,0.72
2023-04-15T09:26:48.123Z,0.67
2023-04-15T09:29:34.024Z,0.81
2023-04-15T09:32:19.812Z,0.62
2023-04-15T09:35:05.634Z,0.87
2023-04-15T09:37:51.461Z,0.73
2023-04-15T09:40:37.306Z,0.53
2023-04-15T09:43:23.133Z,0.65
2023-04-15T09:46:08.901Z,0.45
2023-04-15T09:48:54.865Z,0.44
2023-04-15T09:54:27.140Z,0.51
2023-04-15T09:57:13.012Z,0.34
2023-04-15T09:59:58.943Z,0.25
2023-04-15T10:02:44.795Z,0.31
2023-04-15T10:05:31.364Z,0.27
2023-04-15T10:08:17.445Z,0.38
2023-04-15T10:11:03.355Z,0.33
2023-04-15T10:13:49.389Z,0.32
2023-04-15T10:16:35.180Z,0.37
2023-04-15T10:19:20.999Z,0.37
2023-04-15T10:22:06.758Z,0.33
2023-04-15T10:24:52.653Z,0.30
2023-04-15T10:27:38.554Z,0.35
2023-04-15T10:30:24.352Z,0.57
2023-04-15T10:33:10.248Z,0.29
2023-04-15T10:35:56.205Z,0.37
2023-04-15T10:38:41.973Z,0.37
2023-04-15T10:41:27.990Z,0.33
2023-04-15T10:44:13.758Z,0.44
2023-04-15T10:46:59.782Z,0.44
2023-04-15T10:49:45.753Z,0.37
2023-04-15T10:52:33.608Z,0.39
2023-04-15T10:55:19.620Z,0.44
2023-04-15T10:58:05.646Z,0.42
2023-04-15T11:00:51.468Z,0.41
2023-04-15T11:03:37.519Z,0.33
2023-04-15T11:06:23.691Z,0.40
2023-04-15T11:09:09.466Z,0.50
2023-04-15T11:11:55.353Z,0.50
2023-04-15T11:14:41.112Z,0.52
2023-04-15T11:17:26.937Z,0.57
2023-04-15T11:20:12.949Z,0.53
2023-04-15T11:23:10.836Z,0.55
2023-04-15T11:26:01.610Z,0.52
2023-04-15T11:28:47.592Z,0.50
2023-04-15T11:31:33.365Z,0.48
2023-04-15T11:34:19.408Z,0.54
2023-04-15T11:37:05.237Z,0.55
2023-04-15T11:39:51.152Z,0.48
2023-04-15T11:42:46.737Z,0.49
2023-04-15T11:45:35.642Z,0.49
2023-04-15T11:48:21.599Z,0.55
2023-04-15T11:51:07.451Z,0.40
2023-04-15T11:53:53.531Z,0.43
2023-04-15T11:56:39.459Z,0.45
2023-04-15T11:59:28.186Z,0.35
2023-04-15T12:02:18.837Z,0.31
2023-04-15T12:05:05.114Z,0.34
2023-04-15T12:07:51.166Z,0.47
2023-04-15T12:10:37.011Z,0.39
2023-04-15T12:13:22.890Z,0.39
2023-04-15T12:16:08.788Z,0.42
2023-04-15T12:18:54.649Z,0.46
2023-04-15T12:21:40.541Z,0.44
2023-04-15T12:24:26.251Z,0.37
2023-04-15T12:27:12.140Z,0.52
2023-04-15T12:29:58.031Z,0.45
2023-04-15T12:32:43.908Z,0.64
2023-04-15T12:35:29.981Z,0.67
2023-04-15T12:38:15.804Z,0.61
2023-04-15T12:41:01.861Z,0.61
2023-04-15T12:43:47.835Z,0.54
2023-04-15T12:46:33.636Z,0.53
2023-04-15T12:49:19.532Z,0.47
2023-04-15T12:52:05.431Z,0.63
2023-04-15T12:54:51.384Z,0.62
2023-04-15T12:57:37.434Z,0.51
2023-04-15T13:00:23.301Z,0.55
2023-04-15T13:03:09.201Z,0.56
2023-04-15T13:05:55.561Z,0.61
2023-04-15T13:08:47.947Z,0.72
2023-04-15T13:11:41.152Z,0.62
2023-04-15T13:14:26.957Z,0.59
2023-04-15T13:17:12.825Z,0.78
2023-04-15T13:19:58.730Z,0.74
2023-04-15T13:22:44.557Z,0.69
2023-04-15T13:25:30.523Z,0.83
2023-04-15T13:28:18.354Z,0.86
2023-04-15T13:31:04.234Z,0.70
2023-04-15T13:33:50.169Z,0.71
2023-04-15T13:36:35.990Z,0.81
2023-04-15T13:39:21.865Z,0.78
2023-04-15T13:42:07.735Z,0.76
2023-04-15T13:44:53.652Z,0.65
2023-04-15T13:47:39.594Z,0.64
2023-04-15T13:50:25.415Z,0.86
2023-04-15T13:53:11.391Z,0.87
2023-04-15T13:55:57.293Z,0.72
2023-04-15T13:58:43.185Z,0.69
2023-04-15T14:01:29.273Z,0.79
2023-04-15T14:04:15.205Z,0.88
2023-04-15T14:07:03.365Z,0.82
2023-04-15T14:09:50.567Z,0.81
2023-04-15T14:12:36.512Z,0.93
2023-04-15T14:15:22.432Z,0.73
2023-04-15T14:18:08.388Z,0.72
2023-04-15T14:20:54.222Z,0.69
2023-04-15T14:23:40.083Z,0.59
2023-04-15T14:26:26.024Z,0.65
2023-04-15T14:29:11.839Z,0.68
2023-04-15T14:32:11.039Z,0.56
2023-04-15T14:34:58.391Z,0.68
2023-04-15T14:37:44.403Z,0.80
2023-04-15T14:40:30.350Z,0.72
2023-04-15T14:43:16.147Z,0.89
2023-04-15T14:46:02.044Z,0.92
2023-04-15T14:48:48.316Z,1.00
2023-04-15T14:51:34.178Z,0.94
2023-04-15T14:54:21.915Z,1.07
2023-04-15T14:57:08.520Z,1.01
2023-04-15T14:59:54.416Z,1.06
2023-04-15T15:02:40.749Z,1.00
2023-04-15T15:05:26.822Z,0.95
2023-04-15T15:08:13.059Z,0.93
2023-04-15T15:10:59.009Z,0.90
2023-04-15T15:13:44.851Z,0.96
2023-04-15T15:16:30.841Z,1.02
2023-04-15T15:19:17.009Z,0.91
2023-04-15T15:22:02.869Z,0.89
2023-04-15T15:24:48.839Z,0.88
2023-04-15T15:27:37.089Z,0.75
2023-04-15T15:30:24.053Z,0.79
2023-04-15T15:33:09.994Z,0.72
2023-04-15T15:35:56.004Z,0.74
2023-04-15T15:38:41.914Z,0.73
2023-04-15T15:41:29.934Z,0.70
2023-04-15T15:44:15.897Z,0.83
2023-04-15T15:47:01.728Z,0.68
2023-04-15T15:49:48.085Z,0.76
2023-04-15T15:52:34.038Z,0.66
2023-04-15T15:55:19.873Z,0.78
2023-04-15T15:58:05.797Z,0.66
2023-04-15T16:00:51.696Z,0.70
2023-04-15T16:03:37.847Z,0.63
2023-04-15T16:06:24.368Z,0.64
2023-04-15T16:09:10.120Z,0.72
2023-04-15T16:11:56.061Z,0.70
2023-04-15T16:14:42.012Z,0.88
2023-04-15T16:17:27.854Z,0.69
2023-04-15T16:20:13.770Z,0.91
2023-04-15T16:22:59.732Z,0.78
2023-04-15T16:25:45.722Z,0.81
2023-04-15T16:28:31.718Z,0.84
2023-04-15T16:31:17.521Z,0.80
2023-04-15T16:34:03.529Z,0.75
2023-04-15T16:36:49.407Z,0.73
2023-04-15T16:39:35.302Z,0.73
2023-04-15T16:42:21.340Z,0.77
2023-04-15T16:45:07.252Z,0.85
2023-04-15T16:47:53.164Z,0.78
2023-04-15T16:50:39.186Z,0.87
2023-04-15T16:53:25.044Z,1.01
2023-04-15T16:56:10.922Z,0.96
2023-04-15T16:58:56.748Z,0.86
2023-04-15T17:01:42.807Z,1.08
2023-04-15T17:04:28.889Z,1.27
2023-04-15T17:07:15.141Z,1.43
2023-04-15T17:10:01.009Z,1.34
2023-04-15T17:12:46.933Z,1.19
2023-04-15T17:15:32.725Z,0.93
2023-04-15T17:18:20.666Z,0.79
2023-04-15T17:21:06.785Z,0.91
2023-04-15T17:23:52.828Z,0.74
2023-04-15T17:26:38.786Z,0.86
2023-04-15T17:29:24.744Z,0.76
2023-04-15T17:32:10.528Z,0.74
2023-04-15T17:34:56.329Z,0.92
2023-04-15T17:37:42.252Z,0.97
2023-04-15T17:40:28.194Z,0.99
2023-04-15T17:43:14.167Z,0.95
2023-04-15T17:46:00.174Z,0.95
2023-04-15T17:48:46.112Z,1.10
2023-04-15T17:51:31.904Z,1.10
2023-04-15T17:54:18.009Z,1.10
2023-04-15T17:57:03.833Z,0.94
2023-04-15T17:59:49.599Z,1.08
2023-04-15T18:02:37.247Z,1.04
2023-04-15T18:05:23.556Z,0.83
2023-04-15T18:08:09.338Z,0.87
2023-04-15T18:10:55.233Z,0.92
2023-04-15T18:13:43.190Z,0.89
2023-04-15T18:16:29.734Z,0.86
2023-04-15T18:19:15.617Z,0.66
2023-04-15T18:22:01.463Z,0.91
2023-04-15T18:24:47.413Z,1.09
2023-04-15T18:27:33.358Z,0.99
2023-04-15T18:30:19.115Z,0.93
2023-04-15T18:33:05.133Z,0.75
2023-04-15T18:35:51.263Z,0.84
2023-04-15T18:38:37.178Z,0.86
2023-04-15T18:41:23.129Z,0.75
2023-04-15T18:44:09.013Z,0.87
2023-04-15T18:46:54.995Z,0.73
2023-04-15T18:49:40.766Z,0.81
2023-04-15T18:52:26.745Z,0.87
2023-04-15T18:55:12.609Z,0.72
2023-04-15T18:58:06.567Z,0.73
2023-04-15T19:00:55.237Z,0.85
2023-04-15T19:03:41.096Z,0.74
2023-04-15T19:06:27.197Z,0.85
2023-04-15T19:09:13.380Z,0.63
2023-04-15T19:11:59.290Z,0.75
2023-04-15T19:14:47.081Z,0.78
2023-04-15T19:17:33.215Z,0.90
2023-04-15T19:20:19.277Z,0.94
2023-04-15T19:23:05.160Z,0.91
2023-04-15T19:25:51.120Z,1.18
2023-04-15T19:28:36.958Z,1.34
2023-04-15T19:31:23.106Z,1.27
2023-04-15T19:34:09.285Z,1.03
2023-04-15T19:36:55.152Z,1.03
2023-04-15T19:39:41.097Z,1.02
2023-04-15T19:42:26.882Z,1.00
2023-04-15T19:45:12.629Z,0.94
2023-04-15T19:47:58.563Z,0.93
2023-04-15T19:50:44.587Z,0.91
2023-04-15T19:53:30.485Z,0.88
2023-04-15T19:56:16.215Z,0.99
2023-04-15T19:59:02.293Z,0.77
2023-04-15T20:01:48.736Z,0.61
2023-04-15T20:04:35.022Z,0.64
2023-04-15T20:07:20.979Z,0.79
2023-04-15T20:10:12.145Z,0.70
2023-04-15T20:12:59.087Z,0.77
2023-04-15T20:15:45.089Z,0.63
2023-04-15T20:18:30.898Z,0.68
2023-04-15T20:21:16.817Z,0.74
2023-04-15T20:24:02.905Z,0.69
2023-04-15T20:26:49.258Z,0.83
2023-04-15T20:29:34.949Z,0.77
2023-04-15T20:32:20.850Z,0.83
2023-04-15T20:35:06.874Z,0.80
2023-04-15T20:37:52.845Z,0.88
2023-04-15T20:43:24.663Z,0.91
2023-04-15T20:46:20.463Z,0.76
2023-04-15T20:49:07.621Z,0.83
2023-04-15T20:51:53.944Z,0.84
2023-04-15T20:54:39.720Z,0.73
2023-04-15T20:57:25.532Z,0.66
2023-04-15T21:00:11.498Z,0.64
2023-04-15T21:02:57.461Z,0.61
2023-04-15T21:05:43.802Z,0.57
2023-04-15T21:08:29.784Z,0.65
2023-04-15T21:11:28.319Z,0.71
2023-04-15T21:14:21.516Z,0.54
2023-04-15T21:17:10.197Z,0.64
2023-04-15T21:19:57.075Z,0.60
2023-04-15T21:22:42.959Z,0.60
2023-04-15T21:25:28.771Z,0.54
2023-04-15T21:28:14.691Z,0.57
2023-04-15T21:31:00.471Z,0.75
2023-04-15T21:33:48.594Z,0.55
2023-04-15T21:36:34.561Z,0.51
2023-04-15T21:39:20.463Z,0.51
2023-04-15T21:42:06.483Z,0.64
2023-04-15T21:44:52.329Z,0.60
2023-04-15T21:47:59.692Z,0.75
2023-04-15T21:50:44.499Z,0.92
2023-04-15T21:53:30.348Z,0.77
2023-04-15T21:56:16.339Z,0.69
2023-04-15T21:59:04.328Z,0.70
2023-04-15T22:01:50.595Z,0.75
2023-04-15T22:04:36.830Z,0.70
2023-04-15T22:07:22.674Z,0.72
2023-04-15T22:10:08.605Z,0.63
2023-04-15T22:12:54.579Z,0.70
2023-04-15T22:15:40.573Z,0.60
2023-04-15T22:18:26.329Z,0.68
2023-04-15T22:21:12.292Z,0.74
2023-04-15T22:24:32.533Z,0.72
2023-04-15T22:27:04.629Z,0.69
2023-04-15T22:29:50.489Z,0.76
2023-04-15T22:32:36.557Z,0.76
2023-04-15T22:35:22.635Z,0.68
2023-04-15T22:38:08.532Z,0.70
2023-04-15T22:40:54.408Z,0.61
2023-04-15T22:43:40.098Z,0.71
2023-04-15T22:46:26.170Z,0.67
2023-04-15T22:49:12.125Z,0.62
2023-04-15T22:51:57.954Z,0.81
2023-04-15T22:54:43.774Z,0.94
2023-04-15T22:57:29.720Z,1.52
2023-04-15T23:03:57.024Z,1.75
2023-04-15T23:06:51.629Z,1.39
2023-04-15T23:09:37.640Z,1.17
2023-04-15T23:12:23.440Z,0.96
2023-04-15T23:15:09.258Z,0.92
2023-04-15T23:17:55.283Z,0.89
2023-04-15T23:20:41.143Z,1.02
2023-04-15T23:23:27.061Z,0.89
2023-04-15T23:26:12.989Z,0.92
2023-04-15T23:28:58.704Z,1.00
2023-04-15T23:31:44.753Z,1.04
2023-04-15T23:34:32.588Z,1.11
2023-04-15T23:37:18.476Z,1.01
2023-04-15T23:40:04.310Z,1.21
2023-04-15T23:42:50.293Z,1.24
2023-04-15T23:45:36.204Z,1.75
2023-04-15T23:48:22.128Z,2.15
2023-04-15T23:51:07.955Z,1.75
2023-04-15T23:53:53.987Z,1.66
2023-04-15T23:56:39.950Z,1.47
2023-04-15T23:59:25.701Z,1.77
